createdAt,value
2022-12-02T00:09:34.529Z,101026.91
2022-12-02T00:19:39.511Z,101021.75
2022-12-02T00:29:43.285Z,101022.28
2022-12-02T00:39:48.283Z,101024.69
2022-12-02T00:49:51.990Z,101014.19
2022-12-02T00:59:57.061Z,101006.81
2022-12-02T01:10:00.832Z,100988.19
2022-12-02T01:20:07.290Z,100980.25
2022-12-02T01:30:12.911Z,100994.94
2022-12-02T01:40:19.417Z,100989.72
2022-12-02T01:50:23.924Z,100986.91
2022-12-02T02:00:29.329Z,100984.72
2022-12-02T02:10:34.308Z,100984.59
2022-12-02T02:20:42.460Z,100978.16
2022-12-02T02:30:48.094Z,100964.69
2022-12-02T02:40:52.711Z,100954.38
2022-12-02T02:50:58.261Z,100969.03
2022-12-02T03:01:08.377Z,100957.66
2022-12-02T03:11:13.979Z,100945.44
2022-12-02T03:21:20.427Z,100930.19
2022-12-02T03:31:26.986Z,100920.91
2022-12-02T03:41:30.982Z,100918.56
2022-12-02T03:51:36.232Z,100915.00
2022-12-02T04:01:39.957Z,100918.50
2022-12-02T04:11:45.076Z,100911.47
2022-12-02T04:21:48.787Z,100900.28
2022-12-02T04:31:53.829Z,100882.59
2022-12-02T04:41:57.528Z,100886.78
2022-12-02T04:52:02.646Z,100880.91
2022-12-02T05:02:06.361Z,100881.00
2022-12-02T05:12:11.623Z,100873.44
2022-12-02T05:22:15.493Z,100869.09
2022-12-02T05:32:20.537Z,100864.22
2022-12-02T05:42:24.354Z,100867.41
2022-12-02T05:52:30.598Z,100872.56
2022-12-02T06:02:41.161Z,100875.47
2022-12-02T06:12:46.740Z,100882.78
2022-12-02T06:22:50.558Z,100879.38
2022-12-02T06:32:59.852Z,100871.25
2022-12-02T06:43:13.572Z,100875.78
2022-12-02T06:53:37.675Z,100881.25
2022-12-02T07:03:47.411Z,100890.47
2022-12-02T07:13:52.651Z,100872.69
2022-12-02T07:23:57.427Z,100876.91
2022-12-02T07:34:02.703Z,100875.31
2022-12-02T07:44:06.916Z,100883.25
2022-12-02T07:54:12.101Z,100882.16
2022-12-02T08:04:16.232Z,100875.00
2022-12-02T08:14:21.328Z,100877.75
2022-12-02T08:24:25.236Z,100875.75
2022-12-02T08:34:30.426Z,100882.81
2022-12-02T08:44:34.558Z,100884.22
2022-12-02T08:54:40.969Z,100877.50
2022-12-02T09:04:45.898Z,100870.22
2022-12-02T09:14:51.529Z,100872.03
2022-12-02T09:24:55.639Z,100881.19
2022-12-02T09:35:01.173Z,100870.50
2022-12-02T09:45:06.272Z,100879.41
2022-12-02T09:55:16.577Z,100876.38
2022-12-02T10:05:23.778Z,100858.47
2022-12-02T10:15:31.872Z,100863.97
2022-12-02T10:25:37.711Z,100851.06
2022-12-02T10:35:48.163Z,100833.28
2022-12-02T10:45:58.559Z,100831.53
2022-12-02T10:56:03.857Z,100826.75
2022-12-02T11:06:14.058Z,100822.50
2022-12-02T11:16:54.121Z,100810.38
2022-12-02T11:27:15.021Z,100806.56
2022-12-02T11:38:21.738Z,100780.75
2022-12-02T11:48:25.487Z,100782.28
2022-12-02T11:58:33.799Z,100778.53
2022-12-02T12:08:38.882Z,100774.63
2022-12-02T12:18:47.234Z,100761.91
2022-12-02T12:28:50.966Z,100744.53
2022-12-02T12:38:56.491Z,100733.13
2022-12-02T12:49:00.547Z,100736.28
2022-12-02T12:59:05.580Z,100727.72
2022-12-02T13:09:09.532Z,100715.75
2022-12-02T13:19:14.682Z,100714.03
2022-12-02T13:29:18.402Z,100721.25
2022-12-02T13:39:23.679Z,100716.59
2022-12-02T13:49:27.698Z,100719.72
2022-12-02T13:59:37.619Z,100708.56
2022-12-02T14:09:42.199Z,100708.03
2022-12-02T14:19:47.633Z,100726.41
2022-12-02T14:29:51.345Z,100725.69
2022-12-02T14:39:56.543Z,100731.94
2022-12-02T14:50:00.429Z,100736.34
2022-12-02T15:00:07.834Z,100732.84
2022-12-02T15:10:12.942Z,100742.56
2022-12-02T15:20:18.260Z,100741.53
2022-12-02T15:30:22.238Z,100734.69
2022-12-02T15:40:27.536Z,100745.97
2022-12-02T15:50:31.346Z,100745.16
2022-12-02T16:00:36.764Z,100741.91
2022-12-02T16:10:40.631Z,100743.66
2022-12-02T16:20:48.508Z,100742.91
2022-12-02T16:30:54.941Z,100748.81
2022-12-02T16:41:00.471Z,100754.63
2022-12-02T16:51:04.598Z,100761.25
2022-12-02T17:01:09.894Z,100767.97
2022-12-02T17:11:13.798Z,100771.94
2022-12-02T17:21:18.942Z,100776.84
2022-12-02T17:31:22.693Z,100783.22
2022-12-02T17:41:30.121Z,100789.91
2022-12-02T17:51:34.884Z,100789.06
2022-12-02T18:01:40.543Z,100802.16
2022-12-02T18:11:44.386Z,100800.47
2022-12-02T18:21:49.478Z,100799.88
2022-12-02T18:31:53.183Z,100806.78
2022-12-02T18:41:58.155Z,100805.72
2022-12-02T18:52:02.687Z,100798.00
2022-12-02T19:02:07.897Z,100794.91
2022-12-02T19:12:11.918Z,100790.88
2022-12-02T19:22:17.282Z,100790.16
2022-12-02T19:32:22.779Z,100792.28
2022-12-02T19:42:27.782Z,100784.06
2022-12-02T19:52:31.514Z,100793.06
2022-12-02T20:02:36.679Z,100793.81
2022-12-02T20:12:40.757Z,100787.28
2022-12-02T20:22:45.908Z,100795.78
2022-12-02T20:32:49.737Z,100800.00
2022-12-02T20:42:54.900Z,100797.41
2022-12-02T20:52:58.639Z,100803.28
2022-12-02T21:03:04.349Z,100801.28
2022-12-02T21:13:08.389Z,100808.38
2022-12-02T21:23:13.449Z,100816.25
2022-12-02T21:33:17.397Z,100812.75
2022-12-02T21:43:22.512Z,100811.88
2022-12-02T21:53:26.232Z,100822.84
2022-12-02T22:03:33.089Z,100812.13
2022-12-02T22:13:36.781Z,100830.72
2022-12-02T22:23:41.811Z,100834.34
2022-12-02T22:33:45.679Z,100836.69
2022-12-02T22:43:50.671Z,100841.06
2022-12-02T22:53:54.589Z,100843.19
2022-12-02T23:03:59.617Z,100827.72
2022-12-02T23:14:04.441Z,100831.81
2022-12-02T23:24:09.779Z,100824.97
2022-12-02T23:34:13.862Z,100824.38
2022-12-02T23:44:18.869Z,100820.38
2022-12-02T23:54:22.804Z,100822.09
